sensor_id;sensor_type;location;lat;lon;timestamp;pressure;altitude;pressure_sealevel;temperature;humidity
53526;BME280;40551;50.478;19.378;2023-07-24T00:00:27;97390.52;;;18.12;67.43
53526;BME280;40551;50.478;19.378;2023-07-24T00:03:18;97401.85;;;18.11;67.95
53526;BME280;40551;50.478;19.378;2023-07-24T00:05:49;97406.80;;;18.12;68.15
53526;BME280;40551;50.478;19.378;2023-07-24T00:08:21;97399.98;;;18.12;68.43
53526;BME280;40551;50.478;19.378;2023-07-24T00:10:52;97404.48;;;18.09;68.38
53526;BME280;40551;50.478;19.378;2023-07-24T00:13:24;97411.90;;;18.06;68.78
53526;BME280;40551;50.478;19.378;2023-07-24T00:15:56;97412.74;;;18.06;68.84
53526;BME280;40551;50.478;19.378;2023-07-24T00:18:27;97405.80;;;18.08;69.16
53526;BME280;40551;50.478;19.378;2023-07-24T00:20:59;97400.73;;;18.07;69.04
53526;BME280;40551;50.478;19.378;2023-07-24T00:23:31;97407.25;;;18.08;69.02
53526;BME280;40551;50.478;19.378;2023-07-24T00:26:02;97401.05;;;18.08;69.25
53526;BME280;40551;50.478;19.378;2023-07-24T00:28:34;97390.22;;;18.09;69.36
53526;BME280;40551;50.478;19.378;2023-07-24T00:31:06;97389.41;;;18.11;69.33
53526;BME280;40551;50.478;19.378;2023-07-24T00:33:38;97389.83;;;18.13;69.39
53526;BME280;40551;50.478;19.378;2023-07-24T00:36:10;97391.49;;;18.13;69.14
53526;BME280;40551;50.478;19.378;2023-07-24T00:38:42;97389.70;;;18.13;69.02
53526;BME280;40551;50.478;19.378;2023-07-24T00:41:14;97385.23;;;18.11;69.04
53526;BME280;40551;50.478;19.378;2023-07-24T00:43:45;97384.75;;;18.10;69.28
53526;BME280;40551;50.478;19.378;2023-07-24T00:46:17;97382.55;;;18.09;69.36
53526;BME280;40551;50.478;19.378;2023-07-24T00:48:51;97377.56;;;18.07;69.34
53526;BME280;40551;50.478;19.378;2023-07-24T00:51:24;97376.66;;;18.05;69.22
53526;BME280;40551;50.478;19.378;2023-07-24T00:53:59;97377.95;;;18.02;68.94
53526;BME280;40551;50.478;19.378;2023-07-24T00:56:32;97373.68;;;18.00;69.12
53526;BME280;40551;50.478;19.378;2023-07-24T00:59:05;97372.02;;;17.97;68.67
53526;BME280;40551;50.478;19.378;2023-07-24T01:01:40;97372.69;;;17.96;69.11
53526;BME280;40551;50.478;19.378;2023-07-24T01:04:13;97371.42;;;17.95;69.14
53526;BME280;40551;50.478;19.378;2023-07-24T01:06:45;97371.95;;;17.94;69.10
53526;BME280;40551;50.478;19.378;2023-07-24T01:09:16;97375.83;;;17.93;69.24
53526;BME280;40551;50.478;19.378;2023-07-24T01:11:52;97372.17;;;17.90;69.15
53526;BME280;40551;50.478;19.378;2023-07-24T01:14:29;97378.69;;;17.90;69.38
53526;BME280;40551;50.478;19.378;2023-07-24T01:17:07;97377.08;;;17.91;69.44
53526;BME280;40551;50.478;19.378;2023-07-24T01:19:42;97378.21;;;17.90;69.70
53526;BME280;40551;50.478;19.378;2023-07-24T01:22:20;97378.02;;;17.89;69.61
53526;BME280;40551;50.478;19.378;2023-07-24T01:25:08;97374.49;;;17.86;69.43
53526;BME280;40551;50.478;19.378;2023-07-24T01:27:45;97372.91;;;17.85;69.42
53526;BME280;40551;50.478;19.378;2023-07-24T01:30:18;97377.18;;;17.83;69.52
53526;BME280;40551;50.478;19.378;2023-07-24T01:32:50;97372.16;;;17.82;69.47
53526;BME280;40551;50.478;19.378;2023-07-24T01:35:22;97370.17;;;17.82;69.57
53526;BME280;40551;50.478;19.378;2023-07-24T01:37:57;97369.55;;;17.81;69.49
53526;BME280;40551;50.478;19.378;2023-07-24T01:40:30;97370.73;;;17.78;69.67
53526;BME280;40551;50.478;19.378;2023-07-24T01:43:02;97368.94;;;17.76;69.78
53526;BME280;40551;50.478;19.378;2023-07-24T01:45:34;97369.27;;;17.73;69.63
53526;BME280;40551;50.478;19.378;2023-07-24T01:48:07;97364.67;;;17.69;69.79
53526;BME280;40551;50.478;19.378;2023-07-24T01:50:39;97363.96;;;17.66;69.77
53526;BME280;40551;50.478;19.378;2023-07-24T01:53:11;97358.80;;;17.62;70.06
53526;BME280;40551;50.478;19.378;2023-07-24T01:55:42;97361.52;;;17.58;70.09
53526;BME280;40551;50.478;19.378;2023-07-24T01:58:14;97361.61;;;17.53;70.30
53526;BME280;40551;50.478;19.378;2023-07-24T02:00:47;97359.52;;;17.48;70.46
53526;BME280;40551;50.478;19.378;2023-07-24T02:03:18;97354.66;;;17.44;70.61
53526;BME280;40551;50.478;19.378;2023-07-24T02:05:51;97351.55;;;17.39;70.77
53526;BME280;40551;50.478;19.378;2023-07-24T02:08:23;97352.01;;;17.36;70.80
53526;BME280;40551;50.478;19.378;2023-07-24T02:10:55;97354.02;;;17.32;70.99
53526;BME280;40551;50.478;19.378;2023-07-24T02:13:28;97349.61;;;17.29;71.05
53526;BME280;40551;50.478;19.378;2023-07-24T02:16:00;97345.90;;;17.25;71.41
53526;BME280;40551;50.478;19.378;2023-07-24T02:18:31;97342.65;;;17.23;71.30
53526;BME280;40551;50.478;19.378;2023-07-24T02:21:03;97338.54;;;17.21;71.55
53526;BME280;40551;50.478;19.378;2023-07-24T02:23:35;97337.56;;;17.19;71.54
53526;BME280;40551;50.478;19.378;2023-07-24T02:26:08;97333.01;;;17.17;71.77
53526;BME280;40551;50.478;19.378;2023-07-24T02:28:39;97330.23;;;17.13;71.78
53526;BME280;40551;50.478;19.378;2023-07-24T02:31:11;97330.21;;;17.11;71.84
53526;BME280;40551;50.478;19.378;2023-07-24T02:33:42;97327.30;;;17.08;71.72
53526;BME280;40551;50.478;19.378;2023-07-24T02:36:16;97329.42;;;17.05;71.77
53526;BME280;40551;50.478;19.378;2023-07-24T02:38:48;97330.26;;;17.03;71.80
53526;BME280;40551;50.478;19.378;2023-07-24T02:41:20;97333.64;;;17.01;71.92
53526;BME280;40551;50.478;19.378;2023-07-24T02:43:51;97332.06;;;16.97;71.95
53526;BME280;40551;50.478;19.378;2023-07-24T02:46:23;97331.04;;;16.94;72.19
53526;BME280;40551;50.478;19.378;2023-07-24T02:48:55;97332.45;;;16.91;72.14
53526;BME280;40551;50.478;19.378;2023-07-24T02:51:27;97334.06;;;16.89;72.31
53526;BME280;40551;50.478;19.378;2023-07-24T02:53:58;97335.73;;;16.87;72.15
53526;BME280;40551;50.478;19.378;2023-07-24T02:56:30;97334.23;;;16.85;72.26
53526;BME280;40551;50.478;19.378;2023-07-24T02:59:02;97333.92;;;16.83;72.39
53526;BME280;40551;50.478;19.378;2023-07-24T03:01:33;97328.89;;;16.81;72.25
53526;BME280;40551;50.478;19.378;2023-07-24T03:04:05;97326.52;;;16.79;72.30
53526;BME280;40551;50.478;19.378;2023-07-24T03:06:38;97330.29;;;16.74;72.15
53526;BME280;40551;50.478;19.378;2023-07-24T03:09:10;97325.20;;;16.68;72.39
53526;BME280;40551;50.478;19.378;2023-07-24T03:11:42;97323.60;;;16.65;72.41
53526;BME280;40551;50.478;19.378;2023-07-24T03:14:13;97322.05;;;16.64;72.67
53526;BME280;40551;50.478;19.378;2023-07-24T03:16:45;97319.40;;;16.61;72.64
53526;BME280;40551;50.478;19.378;2023-07-24T03:19:16;97323.69;;;16.58;72.75
53526;BME280;40551;50.478;19.378;2023-07-24T03:21:50;97324.38;;;16.53;72.85
53526;BME280;40551;50.478;19.378;2023-07-24T03:24:22;97324.45;;;16.49;73.02
53526;BME280;40551;50.478;19.378;2023-07-24T03:26:53;97326.86;;;16.44;73.16
53526;BME280;40551;50.478;19.378;2023-07-24T03:29:25;97334.06;;;16.42;73.34
53526;BME280;40551;50.478;19.378;2023-07-24T03:31:56;97339.95;;;16.40;73.54
53526;BME280;40551;50.478;19.378;2023-07-24T03:34:28;97340.14;;;16.40;73.75
53526;BME280;40551;50.478;19.378;2023-07-24T03:37:00;97342.61;;;16.40;74.02
53526;BME280;40551;50.478;19.378;2023-07-24T03:39:33;97340.34;;;16.40;74.11
53526;BME280;40551;50.478;19.378;2023-07-24T03:42:09;97342.16;;;16.39;74.20
53526;BME280;40551;50.478;19.378;2023-07-24T03:44:40;97344.72;;;16.40;74.36
53526;BME280;40551;50.478;19.378;2023-07-24T03:47:12;97346.97;;;16.40;74.46
53526;BME280;40551;50.478;19.378;2023-07-24T03:49:44;97343.95;;;16.41;74.57
53526;BME280;40551;50.478;19.378;2023-07-24T03:52:15;97330.90;;;16.41;74.70
53526;BME280;40551;50.478;19.378;2023-07-24T03:54:47;97330.04;;;16.43;74.60
53526;BME280;40551;50.478;19.378;2023-07-24T03:57:19;97334.80;;;16.46;74.77
53526;BME280;40551;50.478;19.378;2023-07-24T03:59:50;97341.63;;;16.47;75.06
53526;BME280;40551;50.478;19.378;2023-07-24T04:02:23;97340.73;;;16.50;75.02
53526;BME280;40551;50.478;19.378;2023-07-24T04:04:54;97335.36;;;16.54;75.18
53526;BME280;40551;50.478;19.378;2023-07-24T04:07:26;97332.09;;;16.58;75.34
53526;BME280;40551;50.478;19.378;2023-07-24T04:09:58;97324.06;;;16.62;75.25
53526;BME280;40551;50.478;19.378;2023-07-24T04:12:30;97319.23;;;16.65;75.34
53526;BME280;40551;50.478;19.378;2023-07-24T04:15:02;97320.18;;;16.69;75.30
53526;BME280;40551;50.478;19.378;2023-07-24T04:17:33;97320.40;;;16.73;75.39
53526;BME280;40551;50.478;19.378;2023-07-24T04:20:08;97324.29;;;16.77;75.62
53526;BME280;40551;50.478;19.378;2023-07-24T04:22:40;97323.43;;;16.82;75.72
53526;BME280;40551;50.478;19.378;2023-07-24T04:25:12;97333.13;;;16.84;75.64
53526;BME280;40551;50.478;19.378;2023-07-24T04:27:43;97338.50;;;16.84;75.74
53526;BME280;40551;50.478;19.378;2023-07-24T04:30:15;97337.23;;;16.86;76.06
53526;BME280;40551;50.478;19.378;2023-07-24T04:32:48;97333.44;;;16.92;76.22
53526;BME280;40551;50.478;19.378;2023-07-24T04:35:20;97332.85;;;16.98;76.17
53526;BME280;40551;50.478;19.378;2023-07-24T04:37:52;97337.42;;;17.03;76.34
53526;BME280;40551;50.478;19.378;2023-07-24T04:40:23;97335.00;;;17.09;76.17
53526;BME280;40551;50.478;19.378;2023-07-24T04:42:55;97335.92;;;17.13;76.19
53526;BME280;40551;50.478;19.378;2023-07-24T04:45:26;97336.53;;;17.18;76.31
53526;BME280;40551;50.478;19.378;2023-07-24T04:47:58;97335.50;;;17.24;76.33
53526;BME280;40551;50.478;19.378;2023-07-24T04:50:30;97335.16;;;17.33;76.09
53526;BME280;40551;50.478;19.378;2023-07-24T04:53:02;97338.58;;;17.41;76.16
53526;BME280;40551;50.478;19.378;2023-07-24T04:55:34;97334.92;;;17.49;76.41
53526;BME280;40551;50.478;19.378;2023-07-24T04:58:06;97333.23;;;17.57;76.49
53526;BME280;40551;50.478;19.378;2023-07-24T05:00:37;97334.75;;;17.67;76.41
53526;BME280;40551;50.478;19.378;2023-07-24T05:03:09;97331.13;;;17.75;76.54
53526;BME280;40551;50.478;19.378;2023-07-24T05:05:41;97327.98;;;17.82;76.30
53526;BME280;40551;50.478;19.378;2023-07-24T05:08:17;97327.26;;;17.89;76.39
53526;BME280;40551;50.478;19.378;2023-07-24T05:10:53;97325.37;;;18.00;76.32
53526;BME280;40551;50.478;19.378;2023-07-24T05:13:24;97321.84;;;18.15;76.47
53526;BME280;40551;50.478;19.378;2023-07-24T05:15:56;97324.06;;;18.35;76.45
53526;BME280;40551;50.478;19.378;2023-07-24T05:18:28;97326.23;;;18.56;76.49
53526;BME280;40551;50.478;19.378;2023-07-24T05:20:59;97326.93;;;18.75;76.39
53526;BME280;40551;50.478;19.378;2023-07-24T05:23:31;97323.96;;;18.92;76.56
53526;BME280;40551;50.478;19.378;2023-07-24T05:26:04;97324.59;;;19.09;76.51
53526;BME280;40551;50.478;19.378;2023-07-24T05:28:35;97326.39;;;19.29;76.64
53526;BME280;40551;50.478;19.378;2023-07-24T05:31:07;97327.55;;;19.45;76.40
53526;BME280;40551;50.478;19.378;2023-07-24T05:33:41;97330.30;;;19.62;76.17
53526;BME280;40551;50.478;19.378;2023-07-24T05:36:13;97331.67;;;19.79;76.02
53526;BME280;40551;50.478;19.378;2023-07-24T05:38:45;97333.42;;;19.94;75.80
53526;BME280;40551;50.478;19.378;2023-07-24T05:41:16;97335.58;;;20.08;75.49
53526;BME280;40551;50.478;19.378;2023-07-24T05:43:48;97334.13;;;20.25;75.33
53526;BME280;40551;50.478;19.378;2023-07-24T05:46:20;97334.23;;;20.44;75.47
53526;BME280;40551;50.478;19.378;2023-07-24T05:48:53;97336.69;;;20.59;75.09
53526;BME280;40551;50.478;19.378;2023-07-24T05:51:25;97332.70;;;20.77;75.22
53526;BME280;40551;50.478;19.378;2023-07-24T05:53:56;97329.59;;;20.95;74.80
53526;BME280;40551;50.478;19.378;2023-07-24T05:56:28;97329.25;;;21.10;74.28
53526;BME280;40551;50.478;19.378;2023-07-24T05:59:00;97328.39;;;21.26;74.11
53526;BME280;40551;50.478;19.378;2023-07-24T06:01:32;97320.59;;;21.43;73.89
53526;BME280;40551;50.478;19.378;2023-07-24T06:04:04;97321.38;;;21.57;73.71
53526;BME280;40551;50.478;19.378;2023-07-24T06:06:37;97325.58;;;21.70;73.34
53526;BME280;40551;50.478;19.378;2023-07-24T06:09:10;97322.65;;;21.78;73.15
53526;BME280;40551;50.478;19.378;2023-07-24T06:11:42;97318.63;;;21.85;72.98
53526;BME280;40551;50.478;19.378;2023-07-24T06:14:13;97319.58;;;21.98;72.86
53526;BME280;40551;50.478;19.378;2023-07-24T06:16:45;97322.20;;;22.24;73.01
53526;BME280;40551;50.478;19.378;2023-07-24T06:19:17;97315.77;;;22.46;72.75
53526;BME280;40551;50.478;19.378;2023-07-24T06:21:48;97318.75;;;22.68;72.38
53526;BME280;40551;50.478;19.378;2023-07-24T06:24:20;97317.95;;;22.86;72.08
53526;BME280;40551;50.478;19.378;2023-07-24T06:26:54;97314.66;;;23.06;71.25
53526;BME280;40551;50.478;19.378;2023-07-24T06:29:26;97317.42;;;23.22;70.63
53526;BME280;40551;50.478;19.378;2023-07-24T06:31:58;97317.45;;;23.35;70.07
53526;BME280;40551;50.478;19.378;2023-07-24T06:34:30;97317.94;;;23.48;69.96
53526;BME280;40551;50.478;19.378;2023-07-24T06:37:01;97314.11;;;23.61;69.94
53526;BME280;40551;50.478;19.378;2023-07-24T06:39:51;97310.75;;;23.74;69.36
53526;BME280;40551;50.478;19.378;2023-07-24T06:42:22;97311.02;;;23.90;69.31
53526;BME280;40551;50.478;19.378;2023-07-24T06:44:54;97306.99;;;24.09;68.67
53526;BME280;40551;50.478;19.378;2023-07-24T06:47:26;97305.15;;;24.27;67.68
53526;BME280;40551;50.478;19.378;2023-07-24T06:49:57;97298.50;;;24.45;67.03
53526;BME280;40551;50.478;19.378;2023-07-24T06:52:29;97299.73;;;24.62;66.49
53526;BME280;40551;50.478;19.378;2023-07-24T06:55:01;97299.29;;;24.76;65.03
53526;BME280;40551;50.478;19.378;2023-07-24T06:57:32;97298.85;;;24.88;64.38
53526;BME280;40551;50.478;19.378;2023-07-24T07:00:06;97297.34;;;25.00;63.44
53526;BME280;40551;50.478;19.378;2023-07-24T07:02:39;97300.22;;;25.10;62.86
53526;BME280;40551;50.478;19.378;2023-07-24T07:05:11;97307.48;;;25.22;62.34
53526;BME280;40551;50.478;19.378;2023-07-24T07:07:42;97302.93;;;25.32;60.90
53526;BME280;40551;50.478;19.378;2023-07-24T07:10:15;97298.66;;;25.45;60.79
53526;BME280;40551;50.478;19.378;2023-07-24T07:12:46;97295.98;;;25.60;59.81
53526;BME280;40551;50.478;19.378;2023-07-24T07:15:18;97295.64;;;25.70;58.53
53526;BME280;40551;50.478;19.378;2023-07-24T07:17:50;97290.38;;;25.79;57.55
53526;BME280;40551;50.478;19.378;2023-07-24T07:20:21;97287.26;;;25.91;57.14
53526;BME280;40551;50.478;19.378;2023-07-24T07:22:53;97284.66;;;26.00;56.32
53526;BME280;40551;50.478;19.378;2023-07-24T07:25:24;97283.78;;;26.07;55.77
53526;BME280;40551;50.478;19.378;2023-07-24T07:27:56;97290.64;;;26.15;55.31
53526;BME280;40551;50.478;19.378;2023-07-24T07:30:28;97292.29;;;26.19;54.46
53526;BME280;40551;50.478;19.378;2023-07-24T07:32:59;97290.81;;;26.24;54.47
53526;BME280;40551;50.478;19.378;2023-07-24T07:35:31;97285.94;;;26.32;54.17
53526;BME280;40551;50.478;19.378;2023-07-24T07:38:03;97291.52;;;26.42;53.99
53526;BME280;40551;50.478;19.378;2023-07-24T07:40:38;97294.17;;;26.53;53.45
53526;BME280;40551;50.478;19.378;2023-07-24T07:43:09;97291.23;;;26.61;52.87
53526;BME280;40551;50.478;19.378;2023-07-24T07:45:41;97289.84;;;26.67;52.17
53526;BME280;40551;50.478;19.378;2023-07-24T07:48:13;97290.70;;;26.72;51.93
53526;BME280;40551;50.478;19.378;2023-07-24T07:50:45;97281.33;;;26.76;51.51
53526;BME280;40551;50.478;19.378;2023-07-24T07:53:21;97279.31;;;26.77;50.47
53526;BME280;40551;50.478;19.378;2023-07-24T07:55:57;97277.79;;;26.80;49.81
53526;BME280;40551;50.478;19.378;2023-07-24T07:58:30;97281.73;;;26.90;49.69
53526;BME280;40551;50.478;19.378;2023-07-24T08:01:05;97282.00;;;26.98;50.42
53526;BME280;40551;50.478;19.378;2023-07-24T08:03:37;97274.60;;;26.93;49.63
53526;BME280;40551;50.478;19.378;2023-07-24T08:06:09;97268.17;;;26.86;49.13
53526;BME280;40551;50.478;19.378;2023-07-24T08:08:41;97262.51;;;26.72;48.39
53526;BME280;40551;50.478;19.378;2023-07-24T08:11:13;97259.26;;;26.52;47.86
53526;BME280;40551;50.478;19.378;2023-07-24T08:13:44;97262.27;;;26.34;47.56
53526;BME280;40551;50.478;19.378;2023-07-24T08:16:16;97263.80;;;26.18;48.28
53526;BME280;40551;50.478;19.378;2023-07-24T08:18:49;97270.64;;;26.05;48.61
53526;BME280;40551;50.478;19.378;2023-07-24T08:21:21;97278.27;;;26.00;49.76
53526;BME280;40551;50.478;19.378;2023-07-24T08:23:52;97273.31;;;25.97;50.47
53526;BME280;40551;50.478;19.378;2023-07-24T08:26:24;97271.74;;;25.95;50.14
53526;BME280;40551;50.478;19.378;2023-07-24T08:28:57;97260.51;;;26.05;50.16
53526;BME280;40551;50.478;19.378;2023-07-24T08:31:30;97254.63;;;26.17;49.88
53526;BME280;40551;50.478;19.378;2023-07-24T08:34:02;97249.54;;;26.25;49.52
53526;BME280;40551;50.478;19.378;2023-07-24T08:36:33;97243.41;;;26.32;49.18
53526;BME280;40551;50.478;19.378;2023-07-24T08:39:05;97246.44;;;26.41;49.20
53526;BME280;40551;50.478;19.378;2023-07-24T08:41:37;97244.48;;;26.55;49.56
53526;BME280;40551;50.478;19.378;2023-07-24T08:44:10;97241.60;;;26.69;48.66
53526;BME280;40551;50.478;19.378;2023-07-24T08:46:42;97238.27;;;26.84;48.51
53526;BME280;40551;50.478;19.378;2023-07-24T08:49:16;97244.36;;;26.98;47.74
53526;BME280;40551;50.478;19.378;2023-07-24T08:51:48;97237.33;;;27.08;46.52
53526;BME280;40551;50.478;19.378;2023-07-24T08:54:20;97250.38;;;27.17;45.86
53526;BME280;40551;50.478;19.378;2023-07-24T08:56:53;97248.49;;;27.27;45.69
53526;BME280;40551;50.478;19.378;2023-07-24T08:59:25;97253.64;;;27.37;45.62
53526;BME280;40551;50.478;19.378;2023-07-24T09:01:57;97252.73;;;27.48;45.03
53526;BME280;40551;50.478;19.378;2023-07-24T09:04:29;97240.66;;;27.60;45.32
53526;BME280;40551;50.478;19.378;2023-07-24T09:07:01;97238.15;;;27.69;45.07
53526;BME280;40551;50.478;19.378;2023-07-24T09:09:33;97247.57;;;27.74;45.34
53526;BME280;40551;50.478;19.378;2023-07-24T09:12:06;97251.24;;;27.70;44.96
53526;BME280;40551;50.478;19.378;2023-07-24T09:14:37;97257.48;;;27.69;44.59
53526;BME280;40551;50.478;19.378;2023-07-24T09:17:10;97241.07;;;27.78;44.08
53526;BME280;40551;50.478;19.378;2023-07-24T09:19:42;97224.14;;;27.89;43.89
53526;BME280;40551;50.478;19.378;2023-07-24T09:22:15;97206.16;;;28.02;43.45
53526;BME280;40551;50.478;19.378;2023-07-24T09:24:54;97192.44;;;28.14;43.19
53526;BME280;40551;50.478;19.378;2023-07-24T09:27:28;97190.80;;;28.22;43.19
53526;BME280;40551;50.478;19.378;2023-07-24T09:30:02;97205.29;;;28.21;43.74
53526;BME280;40551;50.478;19.378;2023-07-24T09:32:43;97207.27;;;28.22;43.58
53526;BME280;40551;50.478;19.378;2023-07-24T09:35:21;97206.36;;;28.19;43.24
53526;BME280;40551;50.478;19.378;2023-07-24T09:38:05;97211.56;;;28.22;43.52
53526;BME280;40551;50.478;19.378;2023-07-24T09:40:41;97216.71;;;28.34;43.83
53526;BME280;40551;50.478;19.378;2023-07-24T09:43:18;97216.59;;;28.47;43.41
53526;BME280;40551;50.478;19.378;2023-07-24T09:46:08;97216.52;;;28.62;43.51
53526;BME280;40551;50.478;19.378;2023-07-24T09:48:41;97199.01;;;28.74;42.95
53526;BME280;40551;50.478;19.378;2023-07-24T09:51:33;97190.91;;;28.84;42.42
53526;BME280;40551;50.478;19.378;2023-07-24T09:54:10;97188.55;;;28.91;42.25
53526;BME280;40551;50.478;19.378;2023-07-24T09:56:46;97172.63;;;29.00;41.88
53526;BME280;40551;50.478;19.378;2023-07-24T09:59:30;97174.58;;;29.05;40.99
53526;BME280;40551;50.478;19.378;2023-07-24T10:02:03;97167.29;;;29.07;40.74
53526;BME280;40551;50.478;19.378;2023-07-24T10:04:35;97175.80;;;29.11;40.54
53526;BME280;40551;50.478;19.378;2023-07-24T10:07:08;97178.64;;;29.14;40.13
53526;BME280;40551;50.478;19.378;2023-07-24T10:09:41;97174.34;;;29.17;40.18
53526;BME280;40551;50.478;19.378;2023-07-24T10:12:14;97174.59;;;29.24;39.85
53526;BME280;40551;50.478;19.378;2023-07-24T10:14:47;97169.27;;;29.31;39.35
53526;BME280;40551;50.478;19.378;2023-07-24T10:17:35;97170.54;;;29.35;39.26
53526;BME280;40551;50.478;19.378;2023-07-24T10:20:09;97169.20;;;29.45;39.12
53526;BME280;40551;50.478;19.378;2023-07-24T10:22:43;97161.92;;;29.48;38.99
53526;BME280;40551;50.478;19.378;2023-07-24T10:25:15;97161.27;;;29.53;39.37
53526;BME280;40551;50.478;19.378;2023-07-24T10:27:47;97164.01;;;29.61;39.51
53526;BME280;40551;50.478;19.378;2023-07-24T10:30:29;97161.66;;;29.64;38.65
53526;BME280;40551;50.478;19.378;2023-07-24T10:33:10;97167.39;;;29.69;38.72
53526;BME280;40551;50.478;19.378;2023-07-24T10:35:44;97168.95;;;29.76;38.72
53526;BME280;40551;50.478;19.378;2023-07-24T10:38:17;97164.95;;;29.85;38.81
53526;BME280;40551;50.478;19.378;2023-07-24T10:40:49;97157.62;;;29.90;38.41
53526;BME280;40551;50.478;19.378;2023-07-24T10:43:41;97161.13;;;29.87;38.21
53526;BME280;40551;50.478;19.378;2023-07-24T10:46:19;97156.33;;;29.91;38.67
53526;BME280;40551;50.478;19.378;2023-07-24T10:48:52;97152.58;;;29.90;38.40
53526;BME280;40551;50.478;19.378;2023-07-24T10:51:23;97148.42;;;29.95;39.12
53526;BME280;40551;50.478;19.378;2023-07-24T10:53:55;97147.81;;;30.05;39.56
53526;BME280;40551;50.478;19.378;2023-07-24T10:56:27;97149.77;;;30.17;38.92
53526;BME280;40551;50.478;19.378;2023-07-24T10:59:03;97147.67;;;30.30;38.85
53526;BME280;40551;50.478;19.378;2023-07-24T11:01:35;97146.80;;;30.40;38.64
53526;BME280;40551;50.478;19.378;2023-07-24T11:04:07;97142.39;;;30.48;38.29
53526;BME280;40551;50.478;19.378;2023-07-24T11:06:43;97146.85;;;30.53;38.04
53526;BME280;40551;50.478;19.378;2023-07-24T11:09:14;97149.40;;;30.45;37.85
53526;BME280;40551;50.478;19.378;2023-07-24T11:11:46;97143.73;;;30.27;38.01
53526;BME280;40551;50.478;19.378;2023-07-24T11:14:18;97145.58;;;30.13;38.29
53526;BME280;40551;50.478;19.378;2023-07-24T11:16:51;97143.27;;;29.97;38.36
53526;BME280;40551;50.478;19.378;2023-07-24T11:19:25;97143.19;;;29.83;38.53
53526;BME280;40551;50.478;19.378;2023-07-24T11:21:57;97139.94;;;29.66;39.09
53526;BME280;40551;50.478;19.378;2023-07-24T11:24:34;97138.10;;;29.54;39.36
53526;BME280;40551;50.478;19.378;2023-07-24T11:27:15;97143.08;;;29.44;39.77
53526;BME280;40551;50.478;19.378;2023-07-24T11:29:49;97143.37;;;29.34;40.65
53526;BME280;40551;50.478;19.378;2023-07-24T11:32:21;97142.61;;;29.24;40.33
53526;BME280;40551;50.478;19.378;2023-07-24T11:34:53;97138.77;;;29.13;40.77
53526;BME280;40551;50.478;19.378;2023-07-24T11:37:25;97140.83;;;29.07;41.55
53526;BME280;40551;50.478;19.378;2023-07-24T11:39:58;97141.56;;;28.99;42.09
53526;BME280;40551;50.478;19.378;2023-07-24T11:42:35;97135.79;;;28.92;41.76
53526;BME280;40551;50.478;19.378;2023-07-24T11:45:10;97130.48;;;28.97;42.56
53526;BME280;40551;50.478;19.378;2023-07-24T11:47:46;97126.69;;;29.06;42.10
53526;BME280;40551;50.478;19.378;2023-07-24T11:50:19;97124.41;;;29.14;41.50
53526;BME280;40551;50.478;19.378;2023-07-24T11:52:52;97116.44;;;29.27;41.72
53526;BME280;40551;50.478;19.378;2023-07-24T11:55:32;97106.15;;;29.42;40.80
53526;BME280;40551;50.478;19.378;2023-07-24T11:58:04;97103.79;;;29.53;40.28
53526;BME280;40551;50.478;19.378;2023-07-24T12:00:36;97099.52;;;29.66;41.08
53526;BME280;40551;50.478;19.378;2023-07-24T12:03:09;97091.59;;;29.81;40.62
53526;BME280;40551;50.478;19.378;2023-07-24T12:05:41;97092.10;;;29.93;40.34
53526;BME280;40551;50.478;19.378;2023-07-24T12:08:14;97090.95;;;30.06;39.94
53526;BME280;40551;50.478;19.378;2023-07-24T12:10:47;97087.75;;;30.17;39.16
53526;BME280;40551;50.478;19.378;2023-07-24T12:13:19;97079.39;;;30.24;38.87
53526;BME280;40551;50.478;19.378;2023-07-24T12:15:51;97076.35;;;30.28;38.74
53526;BME280;40551;50.478;19.378;2023-07-24T12:18:26;97075.09;;;30.39;39.27
53526;BME280;40551;50.478;19.378;2023-07-24T12:20:58;97078.09;;;30.45;38.91
53526;BME280;40551;50.478;19.378;2023-07-24T12:23:29;97072.93;;;30.46;38.78
53526;BME280;40551;50.478;19.378;2023-07-24T12:26:01;97071.10;;;30.41;38.55
53526;BME280;40551;50.478;19.378;2023-07-24T12:28:32;97055.44;;;30.40;37.98
53526;BME280;40551;50.478;19.378;2023-07-24T12:31:04;97047.89;;;30.38;37.78
53526;BME280;40551;50.478;19.378;2023-07-24T12:33:37;97045.86;;;30.43;38.36
53526;BME280;40551;50.478;19.378;2023-07-24T12:36:09;97045.60;;;30.47;37.87
53526;BME280;40551;50.478;19.378;2023-07-24T12:38:40;97035.61;;;30.53;37.69
53526;BME280;40551;50.478;19.378;2023-07-24T12:41:12;97033.48;;;30.61;38.09
53526;BME280;40551;50.478;19.378;2023-07-24T12:43:44;97030.54;;;30.70;37.51
53526;BME280;40551;50.478;19.378;2023-07-24T12:46:16;97030.64;;;30.76;37.13
53526;BME280;40551;50.478;19.378;2023-07-24T12:48:47;97028.11;;;30.84;36.97
53526;BME280;40551;50.478;19.378;2023-07-24T12:51:19;97032.38;;;30.87;37.83
53526;BME280;40551;50.478;19.378;2023-07-24T12:53:51;97032.17;;;30.81;38.70
53526;BME280;40551;50.478;19.378;2023-07-24T12:56:42;97038.80;;;30.84;39.68
53526;BME280;40551;50.478;19.378;2023-07-24T12:59:14;97035.16;;;30.82;38.15
53526;BME280;40551;50.478;19.378;2023-07-24T13:01:46;97034.05;;;30.85;38.18
53526;BME280;40551;50.478;19.378;2023-07-24T13:04:18;97026.52;;;30.92;37.81
53526;BME280;40551;50.478;19.378;2023-07-24T13:06:50;97017.82;;;30.95;37.11
53526;BME280;40551;50.478;19.378;2023-07-24T13:09:21;97017.21;;;31.01;37.60
53526;BME280;40551;50.478;19.378;2023-07-24T13:11:54;97013.19;;;31.05;37.49
53526;BME280;40551;50.478;19.378;2023-07-24T13:14:27;97004.50;;;31.04;37.07
53526;BME280;40551;50.478;19.378;2023-07-24T13:16:59;96996.77;;;31.04;36.25
53526;BME280;40551;50.478;19.378;2023-07-24T13:19:30;96990.65;;;31.07;37.13